Buoy 46930

sailwx.info

Track history (hours):
 
Tides and Currents Weather Stations Pressure Air Temp Water Temp Dewpoint Dewpoint Depression Visibility Wind Speed Wind Dir Waves Ship Positions

Drifting buoy 46930

Last reported at 2016-Aug-31 03:00 UTC. Time now 2016-Aug-31 06:04 UTC.
Position N 18°37' W 165°02'.

Date/timePositionNaut miles runAvg speedWind from/ knotsBaromVisibWave heightAir tempDewpointWater temp
2016-Aug-31 03:00N 18°37' W 165°02'3 0.4
2016-Aug-30 20:00N 18°38' W 164°59'0 0.0
2016-Aug-30 19:00N 18°38' W 164°59'2 0.8
2016-Aug-30 16:00N 18°37' W 164°57'4 0.5
2016-Aug-30 08:00N 18°39' W 164°53'0 0.0
2016-Aug-30 07:00N 18°39' W 164°53'1 1.1
2016-Aug-30 06:00N 18°40' W 164°52'1 1.5
2016-Aug-30 05:00N 18°40' W 164°50'0 0.0
2016-Aug-30 04:00N 18°40' W 164°50'1 1.1
2016-Aug-30 03:00N 18°41' W 164°49'10 0.5
2016-Aug-29 05:00N 18°45' W 164°40'0 0.3
2016-Aug-29 04:00N 18°45' W 164°39'1 0.5
2016-Aug-29 03:00N 18°45' W 164°39'3 0.9
2016-Aug-28 23:00N 18°46' W 164°36'3 0.7
2016-Aug-28 19:00N 18°47' W 164°33'0 0.0
2016-Aug-28 18:00N 18°47' W 164°33'2 1.0
2016-Aug-28 16:00N 18°48' W 164°31'0 0.0
2016-Aug-28 15:00N 18°48' W 164°31'5 0.7
2016-Aug-28 08:00N 18°51' W 164°27'1 0.7
2016-Aug-28 07:00N 18°52' W 164°27'0 0.0
2016-Aug-28 06:00N 18°52' W 164°27'0 0.4
2016-Aug-28 05:00N 18°52' W 164°27'2 0.8
2016-Aug-28 03:00N 18°53' W 164°25'1 0.7
2016-Aug-28 01:00N 18°53' W 164°24'3 0.6
2016-Aug-27 19:00N 18°55' W 164°21'3 0.8
2016-Aug-27 16:00N 18°55' W 164°19'4 0.5
2016-Aug-27 07:00N 18°58' W 164°16'3 0.9
2016-Aug-27 04:00N 18°59' W 164°13'3 1.0
2016-Aug-27 01:00N 19°01' W 164°11'4 0.2
2016-Aug-26 08:00N 19°03' W 164°07'1 0.6
2016-Aug-26 07:00N 19°02' W 164°06'2 0.7
2016-Aug-26 04:00N 19°03' W 164°04'0 0.1
2016-Aug-26 02:00N 19°03' W 164°04'3 0.5
2016-Aug-25 20:00N 19°04' W 164°01'0 0.1
2016-Aug-25 17:00N 19°04' W 164°01'0 0.2
2016-Aug-25 15:00N 19°04' W 164°01'3 0.3
2016-Aug-25 07:00N 19°02' W 163°60'1 0.7
2016-Aug-25 06:00N 19°01' W 163°59'0 0.2
2016-Aug-25 04:00N 19°01' W 163°59'0 0.2
2016-Aug-25 03:00N 19°01' W 163°59'4 0.4
2016-Aug-24 17:00N 18°57' W 163°57'5 0.5
2016-Aug-24 07:00N 18°53' W 163°54'1 0.3
2016-Aug-24 04:00N 18°53' W 163°55'1 1.0
2016-Aug-24 03:00N 18°52' W 163°55'6 0.7
2016-Aug-23 19:00N 18°46' W 163°53'0 0.2
2016-Aug-23 17:00N 18°46' W 163°53'5 0.6
2016-Aug-23 09:00N 18°42' W 163°51'1 0.4
2016-Aug-23 07:00N 18°41' W 163°51'1 0.4
2016-Aug-23 04:00N 18°41' W 163°49'6 0.5
2016-Aug-22 16:00N 18°38' W 163°45'6 0.6
2016-Aug-22 06:00N 18°36' W 163°39'1 0.7
2016-Aug-22 05:00N 18°36' W 163°38'1 0.7
2016-Aug-22 04:00N 18°36' W 163°38'1 0.7
2016-Aug-22 03:00N 18°36' W 163°37'6 0.5
2016-Aug-21 16:00N 18°36' W 163°31'4 0.5
2016-Aug-21 08:00N 18°36' W 163°27'3 0.8
2016-Aug-21 04:00N 18°38' W 163°24'1 0.8
2016-Aug-21 03:00N 18°38' W 163°23'  
Track history (hours):
 
Tides and Currents Weather Stations Pressure Air Temp Water Temp Dewpoint Dewpoint Depression Visibility Wind Speed Wind Dir Waves Ship Positions

Drifting buoy 46930

Last reported at 2016-Aug-31 03:00 UTC. Time now 2016-Aug-31 06:04 UTC.
Position N 18°37' W 165°02'.

Date/timePositionNaut miles runAvg speedWind from/ knotsBaromVisibWave heightAir tempDewpointWater temp
2016-Aug-31 03:00N 18°37' W 165°02'3 0.4
2016-Aug-30 20:00N 18°38' W 164°59'0 0.0
2016-Aug-30 19:00N 18°38' W 164°59'2 0.8
2016-Aug-30 16:00N 18°37' W 164°57'4 0.5
2016-Aug-30 08:00N 18°39' W 164°53'0 0.0
2016-Aug-30 07:00N 18°39' W 164°53'1 1.1
2016-Aug-30 06:00N 18°40' W 164°52'1 1.5
2016-Aug-30 05:00N 18°40' W 164°50'0 0.0
2016-Aug-30 04:00N 18°40' W 164°50'1 1.1
2016-Aug-30 03:00N 18°41' W 164°49'10 0.5
2016-Aug-29 05:00N 18°45' W 164°40'0 0.3
2016-Aug-29 04:00N 18°45' W 164°39'1 0.5
2016-Aug-29 03:00N 18°45' W 164°39'3 0.9
2016-Aug-28 23:00N 18°46' W 164°36'3 0.7
2016-Aug-28 19:00N 18°47' W 164°33'0 0.0
2016-Aug-28 18:00N 18°47' W 164°33'2 1.0
2016-Aug-28 16:00N 18°48' W 164°31'0 0.0
2016-Aug-28 15:00N 18°48' W 164°31'5 0.7
2016-Aug-28 08:00N 18°51' W 164°27'1 0.7
2016-Aug-28 07:00N 18°52' W 164°27'0 0.0
2016-Aug-28 06:00N 18°52' W 164°27'0 0.4
2016-Aug-28 05:00N 18°52' W 164°27'2 0.8
2016-Aug-28 03:00N 18°53' W 164°25'1 0.7
2016-Aug-28 01:00N 18°53' W 164°24'3 0.6
2016-Aug-27 19:00N 18°55' W 164°21'3 0.8
2016-Aug-27 16:00N 18°55' W 164°19'4 0.5
2016-Aug-27 07:00N 18°58' W 164°16'3 0.9
2016-Aug-27 04:00N 18°59' W 164°13'3 1.0
2016-Aug-27 01:00N 19°01' W 164°11'4 0.2
2016-Aug-26 08:00N 19°03' W 164°07'1 0.6
2016-Aug-26 07:00N 19°02' W 164°06'2 0.7
2016-Aug-26 04:00N 19°03' W 164°04'0 0.1
2016-Aug-26 02:00N 19°03' W 164°04'3 0.5
2016-Aug-25 20:00N 19°04' W 164°01'0 0.1
2016-Aug-25 17:00N 19°04' W 164°01'0 0.2
2016-Aug-25 15:00N 19°04' W 164°01'3 0.3
2016-Aug-25 07:00N 19°02' W 163°60'1 0.7
2016-Aug-25 06:00N 19°01' W 163°59'0 0.2
2016-Aug-25 04:00N 19°01' W 163°59'0 0.2
2016-Aug-25 03:00N 19°01' W 163°59'4 0.4
2016-Aug-24 17:00N 18°57' W 163°57'5 0.5
2016-Aug-24 07:00N 18°53' W 163°54'1 0.3
2016-Aug-24 04:00N 18°53' W 163°55'1 1.0
2016-Aug-24 03:00N 18°52' W 163°55'6 0.7
2016-Aug-23 19:00N 18°46' W 163°53'0 0.2
2016-Aug-23 17:00N 18°46' W 163°53'5 0.6
2016-Aug-23 09:00N 18°42' W 163°51'1 0.4
2016-Aug-23 07:00N 18°41' W 163°51'1 0.4
2016-Aug-23 04:00N 18°41' W 163°49'6 0.5
2016-Aug-22 16:00N 18°38' W 163°45'6 0.6
2016-Aug-22 06:00N 18°36' W 163°39'1 0.7
2016-Aug-22 05:00N 18°36' W 163°38'1 0.7
2016-Aug-22 04:00N 18°36' W 163°38'1 0.7
2016-Aug-22 03:00N 18°36' W 163°37'6 0.5
2016-Aug-21 16:00N 18°36' W 163°31'4 0.5
2016-Aug-21 08:00N 18°36' W 163°27'3 0.8
2016-Aug-21 04:00N 18°38' W 163°24'1 0.8
2016-Aug-21 03:00N 18°38' W 163°23'  

Dump ship's entire track history